sensor_id;sensor_type;location;lat;lon;timestamp;P1;durP1;ratioP1;P2;durP2;ratioP2
26319;SDS011;14024;52.226;5.200;2022-08-19T00:01:30;9.73;;;6.60;;
26319;SDS011;14024;52.226;5.200;2022-08-19T00:03:57;6.93;;;5.50;;
26319;SDS011;14024;52.226;5.200;2022-08-19T00:06:23;8.52;;;6.00;;
26319;SDS011;14024;52.226;5.200;2022-08-19T00:08:49;8.63;;;6.55;;
26319;SDS011;14024;52.226;5.200;2022-08-19T00:11:16;8.18;;;5.63;;
26319;SDS011;14024;52.226;5.200;2022-08-19T00:13:42;14.85;;;6.43;;
26319;SDS011;14024;52.226;5.200;2022-08-19T00:16:08;13.73;;;6.30;;
26319;SDS011;14024;52.226;5.200;2022-08-19T00:18:34;11.40;;;6.00;;
26319;SDS011;14024;52.226;5.200;2022-08-19T00:21:00;10.70;;;6.85;;
26319;SDS011;14024;52.226;5.200;2022-08-19T00:23:26;9.00;;;6.03;;
26319;SDS011;14024;52.226;5.200;2022-08-19T00:25:52;8.18;;;6.03;;
26319;SDS011;14024;52.226;5.200;2022-08-19T00:28:19;9.52;;;6.45;;
26319;SDS011;14024;52.226;5.200;2022-08-19T00:30:45;10.77;;;6.65;;
26319;SDS011;14024;52.226;5.200;2022-08-19T00:33:11;10.02;;;7.07;;
26319;SDS011;14024;52.226;5.200;2022-08-19T00:35:38;8.25;;;6.57;;
26319;SDS011;14024;52.226;5.200;2022-08-19T00:38:04;11.02;;;6.95;;
26319;SDS011;14024;52.226;5.200;2022-08-19T00:40:31;9.43;;;6.82;;
26319;SDS011;14024;52.226;5.200;2022-08-19T00:42:57;10.73;;;6.75;;
26319;SDS011;14024;52.226;5.200;2022-08-19T00:45:28;10.32;;;6.80;;
26319;SDS011;14024;52.226;5.200;2022-08-19T00:47:57;10.95;;;6.05;;
26319;SDS011;14024;52.226;5.200;2022-08-19T00:50:28;8.93;;;6.40;;
26319;SDS011;14024;52.226;5.200;2022-08-19T00:52:54;7.60;;;6.05;;
26319;SDS011;14024;52.226;5.200;2022-08-19T00:55:21;7.57;;;5.75;;
26319;SDS011;14024;52.226;5.200;2022-08-19T00:57:51;7.50;;;5.43;;
26319;SDS011;14024;52.226;5.200;2022-08-19T01:00:19;9.75;;;5.72;;
26319;SDS011;14024;52.226;5.200;2022-08-19T01:02:45;9.45;;;5.95;;
26319;SDS011;14024;52.226;5.200;2022-08-19T01:05:13;10.43;;;6.80;;
26319;SDS011;14024;52.226;5.200;2022-08-19T01:07:40;9.73;;;5.75;;
26319;SDS011;14024;52.226;5.200;2022-08-19T01:10:14;10.98;;;5.57;;
26319;SDS011;14024;52.226;5.200;2022-08-19T01:12:43;5.85;;;4.85;;
26319;SDS011;14024;52.226;5.200;2022-08-19T01:15:10;9.07;;;5.40;;
26319;SDS011;14024;52.226;5.200;2022-08-19T01:17:38;7.88;;;5.35;;
26319;SDS011;14024;52.226;5.200;2022-08-19T01:20:04;6.22;;;5.20;;
26319;SDS011;14024;52.226;5.200;2022-08-19T01:22:37;8.02;;;5.28;;
26319;SDS011;14024;52.226;5.200;2022-08-19T01:25:05;7.50;;;5.35;;
26319;SDS011;14024;52.226;5.200;2022-08-19T01:27:39;8.27;;;4.97;;
26319;SDS011;14024;52.226;5.200;2022-08-19T01:30:06;7.38;;;5.35;;
26319;SDS011;14024;52.226;5.200;2022-08-19T01:32:32;10.02;;;5.85;;
26319;SDS011;14024;52.226;5.200;2022-08-19T01:34:58;8.52;;;5.55;;
26319;SDS011;14024;52.226;5.200;2022-08-19T01:37:27;7.68;;;5.47;;
26319;SDS011;14024;52.226;5.200;2022-08-19T01:39:55;7.15;;;5.10;;
26319;SDS011;14024;52.226;5.200;2022-08-19T01:42:21;7.97;;;5.50;;
26319;SDS011;14024;52.226;5.200;2022-08-19T01:44:47;6.97;;;5.28;;
26319;SDS011;14024;52.226;5.200;2022-08-19T01:47:13;9.27;;;4.85;;
26319;SDS011;14024;52.226;5.200;2022-08-19T01:49:41;7.25;;;5.30;;
26319;SDS011;14024;52.226;5.200;2022-08-19T01:52:06;8.82;;;5.43;;
26319;SDS011;14024;52.226;5.200;2022-08-19T01:54:32;7.53;;;5.65;;
26319;SDS011;14024;52.226;5.200;2022-08-19T01:57:06;8.32;;;5.47;;
26319;SDS011;14024;52.226;5.200;2022-08-19T01:59:33;11.30;;;5.63;;
26319;SDS011;14024;52.226;5.200;2022-08-19T02:02:01;7.45;;;5.35;;
26319;SDS011;14024;52.226;5.200;2022-08-19T02:04:27;6.03;;;5.00;;
26319;SDS011;14024;52.226;5.200;2022-08-19T02:06:53;8.90;;;5.78;;
26319;SDS011;14024;52.226;5.200;2022-08-19T02:09:19;6.25;;;4.80;;
26319;SDS011;14024;52.226;5.200;2022-08-19T02:11:45;6.07;;;4.75;;
26319;SDS011;14024;52.226;5.200;2022-08-19T02:14:11;6.63;;;4.93;;
26319;SDS011;14024;52.226;5.200;2022-08-19T02:16:38;9.68;;;4.75;;
26319;SDS011;14024;52.226;5.200;2022-08-19T02:19:06;7.30;;;5.25;;
26319;SDS011;14024;52.226;5.200;2022-08-19T02:21:32;6.63;;;5.00;;
26319;SDS011;14024;52.226;5.200;2022-08-19T02:23:58;6.78;;;5.03;;
26319;SDS011;14024;52.226;5.200;2022-08-19T02:26:24;9.57;;;5.65;;
26319;SDS011;14024;52.226;5.200;2022-08-19T02:28:51;9.77;;;5.53;;
26319;SDS011;14024;52.226;5.200;2022-08-19T02:31:19;8.30;;;5.72;;
26319;SDS011;14024;52.226;5.200;2022-08-19T02:33:46;7.97;;;5.97;;
26319;SDS011;14024;52.226;5.200;2022-08-19T02:36:12;13.32;;;7.57;;
26319;SDS011;14024;52.226;5.200;2022-08-19T02:38:43;11.13;;;6.05;;
26319;SDS011;14024;52.226;5.200;2022-08-19T02:41:20;10.68;;;7.68;;
26319;SDS011;14024;52.226;5.200;2022-08-19T02:43:46;12.35;;;7.25;;
26319;SDS011;14024;52.226;5.200;2022-08-19T02:48:38;11.45;;;6.70;;
26319;SDS011;14024;52.226;5.200;2022-08-19T02:51:04;11.13;;;6.57;;
26319;SDS011;14024;52.226;5.200;2022-08-19T02:53:30;9.82;;;6.93;;
26319;SDS011;14024;52.226;5.200;2022-08-19T02:55:57;11.73;;;6.95;;
26319;SDS011;14024;52.226;5.200;2022-08-19T02:58:23;10.38;;;6.50;;
26319;SDS011;14024;52.226;5.200;2022-08-19T03:00:50;10.45;;;7.00;;
26319;SDS011;14024;52.226;5.200;2022-08-19T03:03:17;9.15;;;6.55;;
26319;SDS011;14024;52.226;5.200;2022-08-19T03:05:43;8.32;;;6.22;;
26319;SDS011;14024;52.226;5.200;2022-08-19T03:08:10;8.32;;;6.38;;
26319;SDS011;14024;52.226;5.200;2022-08-19T03:10:45;9.10;;;6.18;;
26319;SDS011;14024;52.226;5.200;2022-08-19T03:13:15;9.27;;;6.30;;
26319;SDS011;14024;52.226;5.200;2022-08-19T03:15:42;12.32;;;6.40;;
26319;SDS011;14024;52.226;5.200;2022-08-19T03:18:09;8.80;;;5.85;;
26319;SDS011;14024;52.226;5.200;2022-08-19T03:20:39;8.77;;;5.38;;
26319;SDS011;14024;52.226;5.200;2022-08-19T03:23:05;7.68;;;5.25;;
26319;SDS011;14024;52.226;5.200;2022-08-19T03:25:35;9.80;;;5.10;;
26319;SDS011;14024;52.226;5.200;2022-08-19T03:28:02;10.43;;;4.78;;
26319;SDS011;14024;52.226;5.200;2022-08-19T03:30:28;9.82;;;5.28;;
26319;SDS011;14024;52.226;5.200;2022-08-19T03:32:54;11.38;;;4.82;;
26319;SDS011;14024;52.226;5.200;2022-08-19T03:35:22;6.20;;;5.00;;
26319;SDS011;14024;52.226;5.200;2022-08-19T03:37:48;8.95;;;5.47;;
26319;SDS011;14024;52.226;5.200;2022-08-19T03:40:14;6.68;;;5.25;;
26319;SDS011;14024;52.226;5.200;2022-08-19T03:42:40;9.60;;;5.88;;
26319;SDS011;14024;52.226;5.200;2022-08-19T03:45:07;10.05;;;6.97;;
26319;SDS011;14024;52.226;5.200;2022-08-19T03:47:33;10.55;;;7.18;;
26319;SDS011;14024;52.226;5.200;2022-08-19T03:49:59;7.95;;;6.20;;
26319;SDS011;14024;52.226;5.200;2022-08-19T03:52:25;12.77;;;7.80;;
26319;SDS011;14024;52.226;5.200;2022-08-19T03:54:51;12.82;;;7.60;;
26319;SDS011;14024;52.226;5.200;2022-08-19T03:57:17;9.63;;;6.85;;
26319;SDS011;14024;52.226;5.200;2022-08-19T03:59:43;11.80;;;6.05;;
26319;SDS011;14024;52.226;5.200;2022-08-19T04:02:10;8.23;;;5.70;;
26319;SDS011;14024;52.226;5.200;2022-08-19T04:04:38;8.30;;;5.80;;
26319;SDS011;14024;52.226;5.200;2022-08-19T04:07:04;9.90;;;5.50;;
26319;SDS011;14024;52.226;5.200;2022-08-19T04:09:30;5.93;;;4.90;;
26319;SDS011;14024;52.226;5.200;2022-08-19T04:11:58;10.43;;;5.95;;
26319;SDS011;14024;52.226;5.200;2022-08-19T04:14:25;9.48;;;6.90;;
26319;SDS011;14024;52.226;5.200;2022-08-19T04:16:51;10.00;;;6.10;;
26319;SDS011;14024;52.226;5.200;2022-08-19T04:19:19;10.23;;;6.47;;
26319;SDS011;14024;52.226;5.200;2022-08-19T04:21:47;10.52;;;6.97;;
26319;SDS011;14024;52.226;5.200;2022-08-19T04:24:13;14.20;;;7.18;;
26319;SDS011;14024;52.226;5.200;2022-08-19T04:26:39;9.18;;;6.75;;
26319;SDS011;14024;52.226;5.200;2022-08-19T04:29:09;10.90;;;7.15;;
26319;SDS011;14024;52.226;5.200;2022-08-19T04:31:35;12.65;;;7.32;;
26319;SDS011;14024;52.226;5.200;2022-08-19T04:34:04;10.00;;;7.05;;
26319;SDS011;14024;52.226;5.200;2022-08-19T04:36:32;14.60;;;8.10;;
26319;SDS011;14024;52.226;5.200;2022-08-19T04:38:59;11.48;;;6.75;;
26319;SDS011;14024;52.226;5.200;2022-08-19T04:41:26;10.85;;;7.18;;
26319;SDS011;14024;52.226;5.200;2022-08-19T04:44:10;12.02;;;7.78;;
26319;SDS011;14024;52.226;5.200;2022-08-19T04:46:37;16.10;;;9.02;;
26319;SDS011;14024;52.226;5.200;2022-08-19T04:49:05;13.55;;;7.93;;
26319;SDS011;14024;52.226;5.200;2022-08-19T04:51:32;13.50;;;8.50;;
26319;SDS011;14024;52.226;5.200;2022-08-19T04:53:58;18.45;;;8.93;;
26319;SDS011;14024;52.226;5.200;2022-08-19T04:56:25;14.65;;;8.55;;
26319;SDS011;14024;52.226;5.200;2022-08-19T04:58:51;17.35;;;8.93;;
26319;SDS011;14024;52.226;5.200;2022-08-19T05:01:19;14.65;;;8.60;;
26319;SDS011;14024;52.226;5.200;2022-08-19T05:03:45;15.25;;;9.77;;
26319;SDS011;14024;52.226;5.200;2022-08-19T05:06:13;19.45;;;10.48;;
26319;SDS011;14024;52.226;5.200;2022-08-19T05:08:40;20.33;;;11.55;;
26319;SDS011;14024;52.226;5.200;2022-08-19T05:13:37;23.85;;;13.77;;
26319;SDS011;14024;52.226;5.200;2022-08-19T05:16:03;31.42;;;13.65;;
26319;SDS011;14024;52.226;5.200;2022-08-19T05:18:29;25.75;;;15.30;;
26319;SDS011;14024;52.226;5.200;2022-08-19T05:21:14;39.22;;;21.27;;
26319;SDS011;14024;52.226;5.200;2022-08-19T05:23:59;45.40;;;23.10;;
26319;SDS011;14024;52.226;5.200;2022-08-19T05:26:26;40.33;;;20.98;;
26319;SDS011;14024;52.226;5.200;2022-08-19T05:28:52;41.55;;;21.77;;
26319;SDS011;14024;52.226;5.200;2022-08-19T05:31:18;42.30;;;22.38;;
26319;SDS011;14024;52.226;5.200;2022-08-19T05:33:44;41.42;;;23.88;;
26319;SDS011;14024;52.226;5.200;2022-08-19T05:36:10;40.72;;;23.63;;
26319;SDS011;14024;52.226;5.200;2022-08-19T05:38:37;56.63;;;24.92;;
26319;SDS011;14024;52.226;5.200;2022-08-19T05:41:07;57.72;;;29.30;;
26319;SDS011;14024;52.226;5.200;2022-08-19T05:43:34;56.58;;;29.90;;
26319;SDS011;14024;52.226;5.200;2022-08-19T05:46:01;61.92;;;31.58;;
26319;SDS011;14024;52.226;5.200;2022-08-19T05:48:27;78.43;;;34.45;;
26319;SDS011;14024;52.226;5.200;2022-08-19T05:50:53;86.47;;;37.65;;
26319;SDS011;14024;52.226;5.200;2022-08-19T05:53:19;76.65;;;35.58;;
26319;SDS011;14024;52.226;5.200;2022-08-19T05:55:45;85.70;;;38.90;;
26319;SDS011;14024;52.226;5.200;2022-08-19T05:58:11;77.85;;;37.80;;
26319;SDS011;14024;52.226;5.200;2022-08-19T06:00:37;80.55;;;38.88;;
26319;SDS011;14024;52.226;5.200;2022-08-19T06:03:04;82.60;;;38.25;;
26319;SDS011;14024;52.226;5.200;2022-08-19T06:05:31;88.05;;;38.38;;
26319;SDS011;14024;52.226;5.200;2022-08-19T06:07:57;85.25;;;38.28;;
26319;SDS011;14024;52.226;5.200;2022-08-19T06:10:26;82.13;;;39.40;;
26319;SDS011;14024;52.226;5.200;2022-08-19T06:12:52;88.40;;;39.30;;
26319;SDS011;14024;52.226;5.200;2022-08-19T06:15:18;95.78;;;40.88;;
26319;SDS011;14024;52.226;5.200;2022-08-19T06:17:47;88.15;;;38.80;;
26319;SDS011;14024;52.226;5.200;2022-08-19T06:20:14;95.88;;;40.70;;
26319;SDS011;14024;52.226;5.200;2022-08-19T06:22:42;99.95;;;40.53;;
26319;SDS011;14024;52.226;5.200;2022-08-19T06:25:08;98.82;;;41.00;;
26319;SDS011;14024;52.226;5.200;2022-08-19T06:27:34;100.75;;;41.42;;
26319;SDS011;14024;52.226;5.200;2022-08-19T06:30:03;102.47;;;41.65;;
26319;SDS011;14024;52.226;5.200;2022-08-19T06:32:29;101.93;;;42.40;;
26319;SDS011;14024;52.226;5.200;2022-08-19T06:34:55;102.43;;;41.03;;
26319;SDS011;14024;52.226;5.200;2022-08-19T06:37:21;110.10;;;43.30;;
26319;SDS011;14024;52.226;5.200;2022-08-19T06:39:47;105.28;;;43.45;;
26319;SDS011;14024;52.226;5.200;2022-08-19T06:42:13;105.05;;;43.70;;
26319;SDS011;14024;52.226;5.200;2022-08-19T06:44:42;114.05;;;45.83;;
26319;SDS011;14024;52.226;5.200;2022-08-19T06:47:11;103.50;;;45.00;;
26319;SDS011;14024;52.226;5.200;2022-08-19T06:49:37;108.05;;;44.72;;
26319;SDS011;14024;52.226;5.200;2022-08-19T06:52:03;102.85;;;42.67;;
26319;SDS011;14024;52.226;5.200;2022-08-19T06:54:30;119.80;;;45.35;;
26319;SDS011;14024;52.226;5.200;2022-08-19T06:56:59;112.15;;;44.13;;
26319;SDS011;14024;52.226;5.200;2022-08-19T06:59:29;115.38;;;44.80;;
26319;SDS011;14024;52.226;5.200;2022-08-19T07:01:56;124.75;;;46.85;;
26319;SDS011;14024;52.226;5.200;2022-08-19T07:04:24;125.28;;;47.75;;
26319;SDS011;14024;52.226;5.200;2022-08-19T07:06:59;128.90;;;48.78;;
26319;SDS011;14024;52.226;5.200;2022-08-19T07:09:25;134.02;;;47.00;;
26319;SDS011;14024;52.226;5.200;2022-08-19T07:11:55;127.75;;;48.47;;
26319;SDS011;14024;52.226;5.200;2022-08-19T07:14:22;119.68;;;46.50;;
26319;SDS011;14024;52.226;5.200;2022-08-19T07:16:50;126.75;;;49.55;;
26319;SDS011;14024;52.226;5.200;2022-08-19T07:19:16;130.50;;;46.63;;
26319;SDS011;14024;52.226;5.200;2022-08-19T07:21:43;121.95;;;49.35;;
26319;SDS011;14024;52.226;5.200;2022-08-19T07:24:09;121.55;;;47.75;;
26319;SDS011;14024;52.226;5.200;2022-08-19T07:26:39;124.63;;;49.88;;
26319;SDS011;14024;52.226;5.200;2022-08-19T07:29:06;124.90;;;50.97;;
26319;SDS011;14024;52.226;5.200;2022-08-19T07:31:32;115.60;;;47.55;;
26319;SDS011;14024;52.226;5.200;2022-08-19T07:34:02;126.32;;;49.60;;
26319;SDS011;14024;52.226;5.200;2022-08-19T07:36:32;123.35;;;49.28;;
26319;SDS011;14024;52.226;5.200;2022-08-19T07:38:59;121.38;;;50.83;;
26319;SDS011;14024;52.226;5.200;2022-08-19T07:41:26;117.20;;;50.08;;
26319;SDS011;14024;52.226;5.200;2022-08-19T07:43:53;118.25;;;50.38;;
26319;SDS011;14024;52.226;5.200;2022-08-19T07:46:19;113.63;;;48.70;;
26319;SDS011;14024;52.226;5.200;2022-08-19T07:48:46;129.70;;;51.17;;
26319;SDS011;14024;52.226;5.200;2022-08-19T07:51:12;112.75;;;49.80;;
26319;SDS011;14024;52.226;5.200;2022-08-19T07:53:38;114.25;;;48.70;;
26319;SDS011;14024;52.226;5.200;2022-08-19T07:56:05;116.10;;;49.63;;
26319;SDS011;14024;52.226;5.200;2022-08-19T07:58:32;109.80;;;49.15;;
26319;SDS011;14024;52.226;5.200;2022-08-19T08:00:59;118.78;;;49.05;;
26319;SDS011;14024;52.226;5.200;2022-08-19T08:03:26;109.95;;;48.53;;
26319;SDS011;14024;52.226;5.200;2022-08-19T08:06:14;100.82;;;47.25;;
26319;SDS011;14024;52.226;5.200;2022-08-19T08:09:00;104.50;;;45.97;;
26319;SDS011;14024;52.226;5.200;2022-08-19T08:11:35;104.63;;;48.20;;
26319;SDS011;14024;52.226;5.200;2022-08-19T08:14:01;100.05;;;46.70;;
26319;SDS011;14024;52.226;5.200;2022-08-19T08:16:28;106.47;;;47.75;;
26319;SDS011;14024;52.226;5.200;2022-08-19T08:18:56;105.63;;;48.45;;
26319;SDS011;14024;52.226;5.200;2022-08-19T08:21:22;109.38;;;48.58;;
26319;SDS011;14024;52.226;5.200;2022-08-19T08:23:48;108.25;;;48.40;;
26319;SDS011;14024;52.226;5.200;2022-08-19T08:26:13;104.45;;;48.42;;
26319;SDS011;14024;52.226;5.200;2022-08-19T08:28:41;104.90;;;47.60;;
26319;SDS011;14024;52.226;5.200;2022-08-19T08:31:07;105.60;;;48.33;;
26319;SDS011;14024;52.226;5.200;2022-08-19T08:33:34;104.97;;;49.65;;
26319;SDS011;14024;52.226;5.200;2022-08-19T08:36:09;103.10;;;48.20;;
26319;SDS011;14024;52.226;5.200;2022-08-19T08:38:36;109.53;;;48.55;;
26319;SDS011;14024;52.226;5.200;2022-08-19T08:43:38;101.85;;;48.47;;
26319;SDS011;14024;52.226;5.200;2022-08-19T08:46:09;97.63;;;48.10;;
26319;SDS011;14024;52.226;5.200;2022-08-19T08:48:44;97.68;;;48.78;;
26319;SDS011;14024;52.226;5.200;2022-08-19T08:51:18;109.40;;;48.53;;
26319;SDS011;14024;52.226;5.200;2022-08-19T08:53:46;92.55;;;45.80;;
26319;SDS011;14024;52.226;5.200;2022-08-19T08:56:14;102.43;;;47.40;;
26319;SDS011;14024;52.226;5.200;2022-08-19T08:58:43;88.90;;;44.58;;
26319;SDS011;14024;52.226;5.200;2022-08-19T09:01:12;90.82;;;46.83;;
26319;SDS011;14024;52.226;5.200;2022-08-19T09:03:41;92.82;;;44.08;;
26319;SDS011;14024;52.226;5.200;2022-08-19T09:08:48;79.57;;;42.55;;
26319;SDS011;14024;52.226;5.200;2022-08-19T09:13:46;87.97;;;42.70;;
26319;SDS011;14024;52.226;5.200;2022-08-19T09:16:18;77.28;;;41.33;;
26319;SDS011;14024;52.226;5.200;2022-08-19T09:18:46;81.57;;;43.25;;
26319;SDS011;14024;52.226;5.200;2022-08-19T09:21:14;80.75;;;43.85;;
26319;SDS011;14024;52.226;5.200;2022-08-19T09:23:40;88.78;;;44.60;;
26319;SDS011;14024;52.226;5.200;2022-08-19T09:26:08;77.50;;;42.97;;
26319;SDS011;14024;52.226;5.200;2022-08-19T09:28:38;76.97;;;44.03;;
26319;SDS011;14024;52.226;5.200;2022-08-19T09:31:06;76.93;;;44.42;;
26319;SDS011;14024;52.226;5.200;2022-08-19T09:33:32;77.72;;;42.67;;
26319;SDS011;14024;52.226;5.200;2022-08-19T09:36:02;75.15;;;40.83;;
26319;SDS011;14024;52.226;5.200;2022-08-19T09:38:28;72.25;;;41.80;;
26319;SDS011;14024;52.226;5.200;2022-08-19T09:40:54;74.00;;;39.92;;
26319;SDS011;14024;52.226;5.200;2022-08-19T09:43:20;68.32;;;38.78;;
26319;SDS011;14024;52.226;5.200;2022-08-19T09:45:46;70.55;;;40.22;;
26319;SDS011;14024;52.226;5.200;2022-08-19T09:48:12;61.03;;;39.00;;
26319;SDS011;14024;52.226;5.200;2022-08-19T09:50:38;60.53;;;36.33;;
26319;SDS011;14024;52.226;5.200;2022-08-19T09:53:04;68.45;;;37.38;;
26319;SDS011;14024;52.226;5.200;2022-08-19T09:55:32;62.70;;;38.63;;
26319;SDS011;14024;52.226;5.200;2022-08-19T09:58:01;58.60;;;36.33;;
26319;SDS011;14024;52.226;5.200;2022-08-19T10:00:28;63.00;;;37.60;;
26319;SDS011;14024;52.226;5.200;2022-08-19T10:02:54;68.95;;;39.72;;
26319;SDS011;14024;52.226;5.200;2022-08-19T10:05:20;60.78;;;38.47;;
26319;SDS011;14024;52.226;5.200;2022-08-19T10:08:04;61.47;;;36.88;;
26319;SDS011;14024;52.226;5.200;2022-08-19T10:10:31;57.90;;;35.75;;
26319;SDS011;14024;52.226;5.200;2022-08-19T10:13:00;60.08;;;36.95;;
26319;SDS011;14024;52.226;5.200;2022-08-19T10:15:26;60.75;;;36.67;;
26319;SDS011;14024;52.226;5.200;2022-08-19T10:17:52;59.90;;;36.45;;
26319;SDS011;14024;52.226;5.200;2022-08-19T10:20:21;66.97;;;37.13;;
26319;SDS011;14024;52.226;5.200;2022-08-19T10:22:47;62.00;;;35.03;;
26319;SDS011;14024;52.226;5.200;2022-08-19T10:25:13;52.33;;;34.30;;
26319;SDS011;14024;52.226;5.200;2022-08-19T10:27:41;58.95;;;34.13;;
26319;SDS011;14024;52.226;5.200;2022-08-19T10:30:07;52.80;;;32.28;;
26319;SDS011;14024;52.226;5.200;2022-08-19T10:32:34;57.45;;;35.08;;
26319;SDS011;14024;52.226;5.200;2022-08-19T10:35:00;51.60;;;33.08;;
26319;SDS011;14024;52.226;5.200;2022-08-19T10:37:26;50.42;;;32.78;;
26319;SDS011;14024;52.226;5.200;2022-08-19T10:39:52;57.75;;;34.63;;
26319;SDS011;14024;52.226;5.200;2022-08-19T10:42:18;45.75;;;30.83;;
26319;SDS011;14024;52.226;5.200;2022-08-19T10:44:45;44.97;;;32.33;;
26319;SDS011;14024;52.226;5.200;2022-08-19T10:47:12;51.63;;;32.22;;
26319;SDS011;14024;52.226;5.200;2022-08-19T10:49:39;52.92;;;31.17;;
26319;SDS011;14024;52.226;5.200;2022-08-19T10:52:25;46.33;;;30.27;;
26319;SDS011;14024;52.226;5.200;2022-08-19T10:55:01;51.63;;;31.77;;
26319;SDS011;14024;52.226;5.200;2022-08-19T10:57:45;43.03;;;28.98;;
26319;SDS011;14024;52.226;5.200;2022-08-19T11:00:11;45.03;;;30.23;;
26319;SDS011;14024;52.226;5.200;2022-08-19T11:02:38;48.00;;;30.92;;
26319;SDS011;14024;52.226;5.200;2022-08-19T11:05:04;42.53;;;29.17;;
26319;SDS011;14024;52.226;5.200;2022-08-19T11:07:31;40.10;;;28.05;;
26319;SDS011;14024;52.226;5.200;2022-08-19T11:09:58;40.35;;;26.58;;
26319;SDS011;14024;52.226;5.200;2022-08-19T11:12:23;43.35;;;27.95;;
26319;SDS011;14024;52.226;5.200;2022-08-19T11:14:50;43.60;;;26.85;;
26319;SDS011;14024;52.226;5.200;2022-08-19T11:17:15;40.67;;;26.42;;
26319;SDS011;14024;52.226;5.200;2022-08-19T11:19:41;36.10;;;22.20;;
26319;SDS011;14024;52.226;5.200;2022-08-19T11:22:08;29.02;;;18.98;;
26319;SDS011;14024;52.226;5.200;2022-08-19T11:24:35;27.17;;;18.00;;
26319;SDS011;14024;52.226;5.200;2022-08-19T11:27:05;29.05;;;17.77;;
26319;SDS011;14024;52.226;5.200;2022-08-19T11:29:32;32.47;;;19.50;;
26319;SDS011;14024;52.226;5.200;2022-08-19T11:31:59;34.63;;;20.30;;
26319;SDS011;14024;52.226;5.200;2022-08-19T11:34:26;36.70;;;22.55;;
26319;SDS011;14024;52.226;5.200;2022-08-19T11:36:53;33.67;;;21.27;;
26319;SDS011;14024;52.226;5.200;2022-08-19T11:39:23;40.33;;;27.70;;
26319;SDS011;14024;52.226;5.200;2022-08-19T11:41:49;46.92;;;28.58;;
26319;SDS011;14024;52.226;5.200;2022-08-19T11:44:15;50.13;;;31.08;;
26319;SDS011;14024;52.226;5.200;2022-08-19T11:46:42;49.15;;;31.40;;
26319;SDS011;14024;52.226;5.200;2022-08-19T11:49:11;41.45;;;29.70;;
26319;SDS011;14024;52.226;5.200;2022-08-19T11:51:37;57.55;;;30.02;;
26319;SDS011;14024;52.226;5.200;2022-08-19T11:54:04;48.70;;;26.50;;
26319;SDS011;14024;52.226;5.200;2022-08-19T11:56:30;37.85;;;25.02;;
26319;SDS011;14024;52.226;5.200;2022-08-19T11:58:57;36.97;;;27.33;;
26319;SDS011;14024;52.226;5.200;2022-08-19T12:01:24;46.17;;;28.88;;
26319;SDS011;14024;52.226;5.200;2022-08-19T12:03:51;47.30;;;31.00;;
26319;SDS011;14024;52.226;5.200;2022-08-19T12:06:18;43.83;;;29.00;;
26319;SDS011;14024;52.226;5.200;2022-08-19T12:08:48;49.28;;;32.40;;
26319;SDS011;14024;52.226;5.200;2022-08-19T12:11:14;43.80;;;28.52;;
26319;SDS011;14024;52.226;5.200;2022-08-19T12:13:40;40.20;;;26.90;;
26319;SDS011;14024;52.226;5.200;2022-08-19T12:16:10;43.20;;;26.73;;
26319;SDS011;14024;52.226;5.200;2022-08-19T12:18:37;39.67;;;26.15;;
26319;SDS011;14024;52.226;5.200;2022-08-19T12:21:03;35.38;;;25.10;;
26319;SDS011;14024;52.226;5.200;2022-08-19T12:23:29;34.83;;;24.08;;
26319;SDS011;14024;52.226;5.200;2022-08-19T12:25:55;36.97;;;26.67;;
26319;SDS011;14024;52.226;5.200;2022-08-19T12:28:22;37.58;;;25.65;;
26319;SDS011;14024;52.226;5.200;2022-08-19T12:30:49;38.28;;;26.38;;
26319;SDS011;14024;52.226;5.200;2022-08-19T12:33:16;35.58;;;23.30;;
26319;SDS011;14024;52.226;5.200;2022-08-19T12:35:43;37.13;;;25.52;;
26319;SDS011;14024;52.226;5.200;2022-08-19T12:38:10;43.00;;;26.08;;
26319;SDS011;14024;52.226;5.200;2022-08-19T12:40:36;32.67;;;22.80;;
26319;SDS011;14024;52.226;5.200;2022-08-19T12:43:04;36.42;;;23.92;;
26319;SDS011;14024;52.226;5.200;2022-08-19T12:45:30;31.20;;;17.77;;
26319;SDS011;14024;52.226;5.200;2022-08-19T12:47:56;23.92;;;16.05;;
26319;SDS011;14024;52.226;5.200;2022-08-19T12:50:23;20.98;;;13.55;;
26319;SDS011;14024;52.226;5.200;2022-08-19T12:52:49;22.38;;;14.00;;
26319;SDS011;14024;52.226;5.200;2022-08-19T12:55:15;25.10;;;14.60;;
26319;SDS011;14024;52.226;5.200;2022-08-19T12:57:43;21.40;;;12.07;;
26319;SDS011;14024;52.226;5.200;2022-08-19T13:00:11;23.00;;;12.75;;
26319;SDS011;14024;52.226;5.200;2022-08-19T13:02:41;18.75;;;12.52;;
26319;SDS011;14024;52.226;5.200;2022-08-19T13:05:10;21.90;;;11.88;;
26319;SDS011;14024;52.226;5.200;2022-08-19T13:07:36;16.33;;;10.63;;
26319;SDS011;14024;52.226;5.200;2022-08-19T13:10:03;17.33;;;10.40;;
26319;SDS011;14024;52.226;5.200;2022-08-19T13:12:29;16.10;;;10.85;;
26319;SDS011;14024;52.226;5.200;2022-08-19T13:14:55;17.52;;;11.13;;
26319;SDS011;14024;52.226;5.200;2022-08-19T13:17:22;21.73;;;12.43;;
26319;SDS011;14024;52.226;5.200;2022-08-19T13:19:48;17.80;;;10.75;;
26319;SDS011;14024;52.226;5.200;2022-08-19T13:22:15;18.85;;;9.88;;
26319;SDS011;14024;52.226;5.200;2022-08-19T13:24:41;17.77;;;10.73;;
26319;SDS011;14024;52.226;5.200;2022-08-19T13:27:08;16.98;;;11.02;;
26319;SDS011;14024;52.226;5.200;2022-08-19T13:29:34;20.15;;;11.20;;
26319;SDS011;14024;52.226;5.200;2022-08-19T13:32:18;16.88;;;10.00;;
26319;SDS011;14024;52.226;5.200;2022-08-19T13:35:03;16.30;;;10.02;;
26319;SDS011;14024;52.226;5.200;2022-08-19T13:37:29;18.48;;;12.55;;
26319;SDS011;14024;52.226;5.200;2022-08-19T13:40:15;19.98;;;12.05;;
26319;SDS011;14024;52.226;5.200;2022-08-19T13:42:43;20.80;;;10.93;;
26319;SDS011;14024;52.226;5.200;2022-08-19T13:45:11;16.67;;;11.00;;
26319;SDS011;14024;52.226;5.200;2022-08-19T13:47:37;20.38;;;10.95;;
26319;SDS011;14024;52.226;5.200;2022-08-19T13:50:14;15.52;;;11.27;;
26319;SDS011;14024;52.226;5.200;2022-08-19T13:52:40;14.52;;;11.65;;
26319;SDS011;14024;52.226;5.200;2022-08-19T13:55:07;16.90;;;10.93;;
26319;SDS011;14024;52.226;5.200;2022-08-19T13:57:33;15.65;;;11.10;;
26319;SDS011;14024;52.226;5.200;2022-08-19T13:59:59;12.77;;;9.30;;
26319;SDS011;14024;52.226;5.200;2022-08-19T14:02:26;14.82;;;9.60;;
26319;SDS011;14024;52.226;5.200;2022-08-19T14:04:53;14.55;;;8.40;;
26319;SDS011;14024;52.226;5.200;2022-08-19T14:07:19;14.25;;;8.35;;
26319;SDS011;14024;52.226;5.200;2022-08-19T14:09:48;13.15;;;8.90;;
26319;SDS011;14024;52.226;5.200;2022-08-19T14:12:14;13.18;;;7.60;;
26319;SDS011;14024;52.226;5.200;2022-08-19T14:14:43;9.35;;;6.18;;
26319;SDS011;14024;52.226;5.200;2022-08-19T14:17:09;6.72;;;5.32;;
26319;SDS011;14024;52.226;5.200;2022-08-19T14:19:35;8.43;;;6.05;;
26319;SDS011;14024;52.226;5.200;2022-08-19T14:22:01;9.63;;;6.45;;
26319;SDS011;14024;52.226;5.200;2022-08-19T14:24:27;8.73;;;5.63;;
26319;SDS011;14024;52.226;5.200;2022-08-19T14:26:53;12.35;;;6.65;;
26319;SDS011;14024;52.226;5.200;2022-08-19T14:29:19;8.95;;;6.53;;
26319;SDS011;14024;52.226;5.200;2022-08-19T14:31:45;8.63;;;6.25;;
26319;SDS011;14024;52.226;5.200;2022-08-19T14:34:11;12.35;;;7.20;;
26319;SDS011;14024;52.226;5.200;2022-08-19T14:36:37;11.95;;;6.20;;
26319;SDS011;14024;52.226;5.200;2022-08-19T14:39:03;8.45;;;5.70;;
26319;SDS011;14024;52.226;5.200;2022-08-19T14:41:29;6.50;;;4.85;;
26319;SDS011;14024;52.226;5.200;2022-08-19T14:43:56;10.25;;;5.18;;